sensor_id;sensor_type;location;lat;lon;timestamp;P1;durP1;ratioP1;P2;durP2;ratioP2
7933;SDS011;4012;48.896;9.192;2023-06-10T00:01:40;4.03;;;3.63;;
7933;SDS011;4012;48.896;9.192;2023-06-10T00:04:06;3.63;;;3.30;;
7933;SDS011;4012;48.896;9.192;2023-06-10T00:06:32;3.97;;;3.00;;
7933;SDS011;4012;48.896;9.192;2023-06-10T00:09:01;4.40;;;3.20;;
7933;SDS011;4012;48.896;9.192;2023-06-10T00:11:35;4.00;;;3.70;;
7933;SDS011;4012;48.896;9.192;2023-06-10T00:14:02;4.40;;;3.20;;
7933;SDS011;4012;48.896;9.192;2023-06-10T00:16:28;3.63;;;3.33;;
7933;SDS011;4012;48.896;9.192;2023-06-10T00:18:54;4.63;;;3.67;;
7933;SDS011;4012;48.896;9.192;2023-06-10T00:21:29;4.00;;;3.60;;
7933;SDS011;4012;48.896;9.192;2023-06-10T00:23:55;4.07;;;3.50;;
7933;SDS011;4012;48.896;9.192;2023-06-10T00:26:22;4.13;;;3.50;;
7933;SDS011;4012;48.896;9.192;2023-06-10T00:28:48;3.60;;;3.30;;
7933;SDS011;4012;48.896;9.192;2023-06-10T00:31:15;4.73;;;3.73;;
7933;SDS011;4012;48.896;9.192;2023-06-10T00:33:41;6.83;;;3.73;;
7933;SDS011;4012;48.896;9.192;2023-06-10T00:36:06;4.33;;;3.70;;
7933;SDS011;4012;48.896;9.192;2023-06-10T00:38:32;4.90;;;3.73;;
7933;SDS011;4012;48.896;9.192;2023-06-10T00:40:58;3.87;;;3.47;;
7933;SDS011;4012;48.896;9.192;2023-06-10T00:43:24;4.73;;;3.73;;
7933;SDS011;4012;48.896;9.192;2023-06-10T00:45:49;4.10;;;3.70;;
7933;SDS011;4012;48.896;9.192;2023-06-10T00:48:16;6.17;;;3.73;;
7933;SDS011;4012;48.896;9.192;2023-06-10T00:50:42;4.67;;;3.17;;
7933;SDS011;4012;48.896;9.192;2023-06-10T00:53:08;3.57;;;3.23;;
7933;SDS011;4012;48.896;9.192;2023-06-10T00:55:34;3.93;;;3.33;;
7933;SDS011;4012;48.896;9.192;2023-06-10T00:58:01;3.40;;;3.10;;
7933;SDS011;4012;48.896;9.192;2023-06-10T01:00:28;3.50;;;3.03;;
7933;SDS011;4012;48.896;9.192;2023-06-10T01:02:54;3.57;;;3.27;;
7933;SDS011;4012;48.896;9.192;2023-06-10T01:05:20;3.87;;;3.40;;
7933;SDS011;4012;48.896;9.192;2023-06-10T01:10:50;3.60;;;3.30;;
7933;SDS011;4012;48.896;9.192;2023-06-10T01:13:20;3.50;;;3.20;;
7933;SDS011;4012;48.896;9.192;2023-06-10T01:15:49;3.90;;;3.50;;
7933;SDS011;4012;48.896;9.192;2023-06-10T01:18:16;4.53;;;2.93;;
7933;SDS011;4012;48.896;9.192;2023-06-10T01:20:42;3.43;;;3.07;;
7933;SDS011;4012;48.896;9.192;2023-06-10T01:23:09;3.37;;;3.07;;
7933;SDS011;4012;48.896;9.192;2023-06-10T01:25:44;4.00;;;2.90;;
7933;SDS011;4012;48.896;9.192;2023-06-10T01:31:06;4.10;;;3.13;;
7933;SDS011;4012;48.896;9.192;2023-06-10T01:33:39;3.97;;;3.30;;
7933;SDS011;4012;48.896;9.192;2023-06-10T01:36:10;3.53;;;3.20;;
7933;SDS011;4012;48.896;9.192;2023-06-10T01:38:39;3.37;;;3.07;;
7933;SDS011;4012;48.896;9.192;2023-06-10T01:41:08;3.13;;;2.83;;
7933;SDS011;4012;48.896;9.192;2023-06-10T01:43:34;4.93;;;2.90;;
7933;SDS011;4012;48.896;9.192;2023-06-10T01:46:02;3.20;;;2.90;;
7933;SDS011;4012;48.896;9.192;2023-06-10T01:48:27;3.47;;;2.80;;
7933;SDS011;4012;48.896;9.192;2023-06-10T01:50:53;5.03;;;3.23;;
7933;SDS011;4012;48.896;9.192;2023-06-10T01:53:21;3.47;;;3.17;;
7933;SDS011;4012;48.896;9.192;2023-06-10T01:55:47;3.03;;;2.83;;
7933;SDS011;4012;48.896;9.192;2023-06-10T01:58:12;5.47;;;3.27;;
7933;SDS011;4012;48.896;9.192;2023-06-10T02:00:38;3.23;;;2.93;;
7933;SDS011;4012;48.896;9.192;2023-06-10T02:03:04;3.10;;;2.80;;
7933;SDS011;4012;48.896;9.192;2023-06-10T02:05:30;5.30;;;3.23;;
7933;SDS011;4012;48.896;9.192;2023-06-10T02:07:55;3.40;;;3.10;;
7933;SDS011;4012;48.896;9.192;2023-06-10T02:10:21;3.93;;;3.03;;
7933;SDS011;4012;48.896;9.192;2023-06-10T02:12:46;4.23;;;3.17;;
7933;SDS011;4012;48.896;9.192;2023-06-10T02:15:12;4.20;;;3.33;;
7933;SDS011;4012;48.896;9.192;2023-06-10T02:17:38;3.70;;;3.40;;
7933;SDS011;4012;48.896;9.192;2023-06-10T02:20:04;3.80;;;3.50;;
7933;SDS011;4012;48.896;9.192;2023-06-10T02:22:32;3.40;;;3.10;;
7933;SDS011;4012;48.896;9.192;2023-06-10T02:24:58;3.33;;;3.03;;
7933;SDS011;4012;48.896;9.192;2023-06-10T02:27:24;3.67;;;3.37;;
7933;SDS011;4012;48.896;9.192;2023-06-10T02:29:49;3.10;;;2.90;;
7933;SDS011;4012;48.896;9.192;2023-06-10T02:32:15;3.43;;;3.03;;
7933;SDS011;4012;48.896;9.192;2023-06-10T02:34:41;4.63;;;3.40;;
7933;SDS011;4012;48.896;9.192;2023-06-10T02:37:07;3.23;;;2.93;;
7933;SDS011;4012;48.896;9.192;2023-06-10T02:39:34;4.77;;;3.30;;
7933;SDS011;4012;48.896;9.192;2023-06-10T02:41:59;5.47;;;3.07;;
7933;SDS011;4012;48.896;9.192;2023-06-10T02:44:25;3.60;;;3.03;;
7933;SDS011;4012;48.896;9.192;2023-06-10T02:46:50;4.00;;;3.63;;
7933;SDS011;4012;48.896;9.192;2023-06-10T02:49:16;3.57;;;3.27;;
7933;SDS011;4012;48.896;9.192;2023-06-10T02:51:42;3.67;;;3.37;;
7933;SDS011;4012;48.896;9.192;2023-06-10T02:54:07;3.77;;;3.37;;
7933;SDS011;4012;48.896;9.192;2023-06-10T02:56:33;3.70;;;3.40;;
7933;SDS011;4012;48.896;9.192;2023-06-10T02:58:59;3.73;;;3.37;;
7933;SDS011;4012;48.896;9.192;2023-06-10T03:01:25;3.30;;;3.00;;
7933;SDS011;4012;48.896;9.192;2023-06-10T03:03:51;3.47;;;3.17;;
7933;SDS011;4012;48.896;9.192;2023-06-10T03:06:17;3.90;;;3.50;;
7933;SDS011;4012;48.896;9.192;2023-06-10T03:08:43;3.70;;;3.40;;
7933;SDS011;4012;48.896;9.192;2023-06-10T03:11:10;3.97;;;3.10;;
7933;SDS011;4012;48.896;9.192;2023-06-10T03:13:36;4.00;;;3.70;;
7933;SDS011;4012;48.896;9.192;2023-06-10T03:16:03;3.43;;;3.13;;
7933;SDS011;4012;48.896;9.192;2023-06-10T03:18:29;3.57;;;3.13;;
7933;SDS011;4012;48.896;9.192;2023-06-10T03:20:55;4.00;;;3.57;;
7933;SDS011;4012;48.896;9.192;2023-06-10T03:23:21;4.90;;;3.30;;
7933;SDS011;4012;48.896;9.192;2023-06-10T03:25:48;4.67;;;3.50;;
7933;SDS011;4012;48.896;9.192;2023-06-10T03:28:13;3.50;;;3.20;;
7933;SDS011;4012;48.896;9.192;2023-06-10T03:30:39;3.80;;;3.50;;
7933;SDS011;4012;48.896;9.192;2023-06-10T03:33:04;3.67;;;3.37;;
7933;SDS011;4012;48.896;9.192;2023-06-10T03:35:30;3.47;;;3.17;;
7933;SDS011;4012;48.896;9.192;2023-06-10T03:37:57;3.83;;;3.53;;
7933;SDS011;4012;48.896;9.192;2023-06-10T03:40:25;3.30;;;3.00;;
7933;SDS011;4012;48.896;9.192;2023-06-10T03:42:51;3.47;;;3.17;;
7933;SDS011;4012;48.896;9.192;2023-06-10T03:45:16;6.80;;;3.80;;
7933;SDS011;4012;48.896;9.192;2023-06-10T03:47:42;3.63;;;3.07;;
7933;SDS011;4012;48.896;9.192;2023-06-10T03:50:09;4.50;;;4.07;;
7933;SDS011;4012;48.896;9.192;2023-06-10T03:52:35;4.80;;;3.57;;
7933;SDS011;4012;48.896;9.192;2023-06-10T03:55:01;4.10;;;3.60;;
7933;SDS011;4012;48.896;9.192;2023-06-10T03:57:27;3.40;;;3.10;;
7933;SDS011;4012;48.896;9.192;2023-06-10T03:59:53;3.33;;;3.03;;
7933;SDS011;4012;48.896;9.192;2023-06-10T04:02:20;3.50;;;3.20;;
7933;SDS011;4012;48.896;9.192;2023-06-10T04:04:46;3.73;;;3.27;;
7933;SDS011;4012;48.896;9.192;2023-06-10T04:07:11;3.80;;;3.50;;
7933;SDS011;4012;48.896;9.192;2023-06-10T04:09:37;3.83;;;3.50;;
7933;SDS011;4012;48.896;9.192;2023-06-10T04:12:04;4.03;;;3.63;;
7933;SDS011;4012;48.896;9.192;2023-06-10T04:14:33;3.40;;;3.10;;
7933;SDS011;4012;48.896;9.192;2023-06-10T04:17:00;3.90;;;3.60;;
7933;SDS011;4012;48.896;9.192;2023-06-10T04:19:26;3.33;;;3.03;;
7933;SDS011;4012;48.896;9.192;2023-06-10T04:21:53;3.80;;;3.50;;
7933;SDS011;4012;48.896;9.192;2023-06-10T04:24:19;3.97;;;2.90;;
7933;SDS011;4012;48.896;9.192;2023-06-10T04:26:44;4.00;;;3.60;;
7933;SDS011;4012;48.896;9.192;2023-06-10T04:29:10;3.30;;;3.00;;
7933;SDS011;4012;48.896;9.192;2023-06-10T04:31:35;3.17;;;2.87;;
7933;SDS011;4012;48.896;9.192;2023-06-10T04:34:01;3.20;;;2.90;;
7933;SDS011;4012;48.896;9.192;2023-06-10T04:36:27;4.10;;;3.30;;
7933;SDS011;4012;48.896;9.192;2023-06-10T04:38:54;3.57;;;3.07;;
7933;SDS011;4012;48.896;9.192;2023-06-10T04:41:19;3.67;;;3.20;;
7933;SDS011;4012;48.896;9.192;2023-06-10T04:43:45;4.80;;;3.50;;
7933;SDS011;4012;48.896;9.192;2023-06-10T04:46:11;4.40;;;3.27;;
7933;SDS011;4012;48.896;9.192;2023-06-10T04:48:38;3.37;;;3.07;;
7933;SDS011;4012;48.896;9.192;2023-06-10T04:51:04;3.53;;;3.20;;
7933;SDS011;4012;48.896;9.192;2023-06-10T04:53:30;3.37;;;3.07;;
7933;SDS011;4012;48.896;9.192;2023-06-10T04:55:56;3.40;;;2.93;;
7933;SDS011;4012;48.896;9.192;2023-06-10T04:58:22;3.40;;;3.10;;
7933;SDS011;4012;48.896;9.192;2023-06-10T05:00:48;3.90;;;3.47;;
7933;SDS011;4012;48.896;9.192;2023-06-10T05:03:14;2.93;;;2.70;;
7933;SDS011;4012;48.896;9.192;2023-06-10T05:05:40;4.00;;;3.50;;
7933;SDS011;4012;48.896;9.192;2023-06-10T05:08:05;3.60;;;3.30;;
7933;SDS011;4012;48.896;9.192;2023-06-10T05:10:31;3.80;;;3.17;;
7933;SDS011;4012;48.896;9.192;2023-06-10T05:12:57;3.50;;;3.20;;
7933;SDS011;4012;48.896;9.192;2023-06-10T05:15:23;3.60;;;3.30;;
7933;SDS011;4012;48.896;9.192;2023-06-10T05:17:49;3.43;;;3.13;;
7933;SDS011;4012;48.896;9.192;2023-06-10T05:20:15;3.67;;;3.20;;
7933;SDS011;4012;48.896;9.192;2023-06-10T05:22:40;3.97;;;3.57;;
7933;SDS011;4012;48.896;9.192;2023-06-10T05:25:06;3.40;;;3.10;;
7933;SDS011;4012;48.896;9.192;2023-06-10T05:27:32;4.27;;;3.70;;
7933;SDS011;4012;48.896;9.192;2023-06-10T05:29:58;3.60;;;3.30;;
7933;SDS011;4012;48.896;9.192;2023-06-10T05:32:24;4.10;;;3.70;;
7933;SDS011;4012;48.896;9.192;2023-06-10T05:34:50;3.60;;;3.30;;
7933;SDS011;4012;48.896;9.192;2023-06-10T05:37:15;3.57;;;3.27;;
7933;SDS011;4012;48.896;9.192;2023-06-10T05:39:41;4.07;;;3.67;;
7933;SDS011;4012;48.896;9.192;2023-06-10T05:42:06;3.97;;;3.57;;
7933;SDS011;4012;48.896;9.192;2023-06-10T05:44:33;3.57;;;3.27;;
7933;SDS011;4012;48.896;9.192;2023-06-10T05:46:59;3.57;;;3.27;;
7933;SDS011;4012;48.896;9.192;2023-06-10T05:49:24;3.83;;;3.03;;
7933;SDS011;4012;48.896;9.192;2023-06-10T05:51:50;4.80;;;3.40;;
7933;SDS011;4012;48.896;9.192;2023-06-10T05:54:17;3.70;;;3.40;;
7933;SDS011;4012;48.896;9.192;2023-06-10T05:56:43;3.67;;;3.23;;
7933;SDS011;4012;48.896;9.192;2023-06-10T05:59:09;3.67;;;3.33;;
7933;SDS011;4012;48.896;9.192;2023-06-10T06:01:35;3.57;;;3.27;;
7933;SDS011;4012;48.896;9.192;2023-06-10T06:04:00;3.83;;;3.43;;
7933;SDS011;4012;48.896;9.192;2023-06-10T06:06:26;3.80;;;3.50;;
7933;SDS011;4012;48.896;9.192;2023-06-10T06:08:52;3.80;;;3.50;;
7933;SDS011;4012;48.896;9.192;2023-06-10T06:11:17;3.57;;;3.00;;
7933;SDS011;4012;48.896;9.192;2023-06-10T06:13:43;3.73;;;3.33;;
7933;SDS011;4012;48.896;9.192;2023-06-10T06:16:11;3.70;;;3.40;;
7933;SDS011;4012;48.896;9.192;2023-06-10T06:18:37;3.60;;;3.10;;
7933;SDS011;4012;48.896;9.192;2023-06-10T06:21:02;4.13;;;3.13;;
7933;SDS011;4012;48.896;9.192;2023-06-10T06:23:28;4.30;;;3.90;;
7933;SDS011;4012;48.896;9.192;2023-06-10T06:25:53;3.60;;;3.07;;
7933;SDS011;4012;48.896;9.192;2023-06-10T06:28:19;3.67;;;3.37;;
7933;SDS011;4012;48.896;9.192;2023-06-10T06:30:46;4.57;;;3.10;;
7933;SDS011;4012;48.896;9.192;2023-06-10T06:33:11;3.40;;;3.10;;
7933;SDS011;4012;48.896;9.192;2023-06-10T06:35:37;2.93;;;2.73;;
7933;SDS011;4012;48.896;9.192;2023-06-10T06:38:03;3.13;;;2.87;;
7933;SDS011;4012;48.896;9.192;2023-06-10T06:40:29;2.93;;;2.63;;
7933;SDS011;4012;48.896;9.192;2023-06-10T06:42:55;3.33;;;3.13;;
7933;SDS011;4012;48.896;9.192;2023-06-10T06:45:20;3.93;;;2.87;;
7933;SDS011;4012;48.896;9.192;2023-06-10T06:47:46;2.93;;;2.67;;
7933;SDS011;4012;48.896;9.192;2023-06-10T06:50:11;3.13;;;2.93;;
7933;SDS011;4012;48.896;9.192;2023-06-10T06:52:37;3.40;;;3.10;;
7933;SDS011;4012;48.896;9.192;2023-06-10T06:55:03;3.63;;;3.33;;
7933;SDS011;4012;48.896;9.192;2023-06-10T06:57:29;3.40;;;3.10;;
7933;SDS011;4012;48.896;9.192;2023-06-10T06:59:54;2.85;;;2.65;;
7933;SDS011;4012;48.896;9.192;2023-06-10T07:02:20;3.03;;;2.80;;
7933;SDS011;4012;48.896;9.192;2023-06-10T07:04:46;3.33;;;3.03;;
7933;SDS011;4012;48.896;9.192;2023-06-10T07:07:13;3.13;;;2.92;;
7933;SDS011;4012;48.896;9.192;2023-06-10T07:09:39;2.85;;;2.65;;
7933;SDS011;4012;48.896;9.192;2023-06-10T07:12:05;2.97;;;2.78;;
7933;SDS011;4012;48.896;9.192;2023-06-10T07:14:31;2.85;;;2.65;;
7933;SDS011;4012;48.896;9.192;2023-06-10T07:16:56;2.83;;;2.55;;
7933;SDS011;4012;48.896;9.192;2023-06-10T07:19:22;3.55;;;2.60;;
7933;SDS011;4012;48.896;9.192;2023-06-10T07:21:48;2.50;;;2.30;;
7933;SDS011;4012;48.896;9.192;2023-06-10T07:24:13;3.28;;;2.97;;
7933;SDS011;4012;48.896;9.192;2023-06-10T07:26:39;2.95;;;2.75;;
7933;SDS011;4012;48.896;9.192;2023-06-10T07:29:04;3.10;;;2.90;;
7933;SDS011;4012;48.896;9.192;2023-06-10T07:31:30;3.15;;;2.92;;
7933;SDS011;4012;48.896;9.192;2023-06-10T07:33:56;3.83;;;3.03;;
7933;SDS011;4012;48.896;9.192;2023-06-10T07:36:21;2.90;;;2.70;;
7933;SDS011;4012;48.896;9.192;2023-06-10T07:38:47;2.97;;;2.78;;
7933;SDS011;4012;48.896;9.192;2023-06-10T07:41:13;2.85;;;2.65;;
7933;SDS011;4012;48.896;9.192;2023-06-10T07:43:39;3.30;;;3.00;;
7933;SDS011;4012;48.896;9.192;2023-06-10T07:46:05;2.88;;;2.67;;
7933;SDS011;4012;48.896;9.192;2023-06-10T07:48:30;2.88;;;2.60;;
7933;SDS011;4012;48.896;9.192;2023-06-10T07:50:56;3.45;;;2.90;;
7933;SDS011;4012;48.896;9.192;2023-06-10T07:53:24;2.58;;;2.35;;
7933;SDS011;4012;48.896;9.192;2023-06-10T07:55:49;3.35;;;3.05;;
7933;SDS011;4012;48.896;9.192;2023-06-10T07:58:15;3.53;;;3.22;;
7933;SDS011;4012;48.896;9.192;2023-06-10T08:00:41;3.53;;;3.00;;
7933;SDS011;4012;48.896;9.192;2023-06-10T08:03:07;3.50;;;3.28;;
7933;SDS011;4012;48.896;9.192;2023-06-10T08:05:32;3.15;;;2.92;;
7933;SDS011;4012;48.896;9.192;2023-06-10T08:07:58;3.50;;;3.20;;
7933;SDS011;4012;48.896;9.192;2023-06-10T08:10:24;3.60;;;3.30;;
7933;SDS011;4012;48.896;9.192;2023-06-10T08:12:49;3.47;;;3.17;;
7933;SDS011;4012;48.896;9.192;2023-06-10T08:15:15;3.47;;;3.17;;
7933;SDS011;4012;48.896;9.192;2023-06-10T08:17:40;3.65;;;3.35;;
7933;SDS011;4012;48.896;9.192;2023-06-10T08:20:06;4.35;;;3.03;;
7933;SDS011;4012;48.896;9.192;2023-06-10T08:22:32;2.90;;;2.70;;
7933;SDS011;4012;48.896;9.192;2023-06-10T08:24:58;4.68;;;3.00;;
7933;SDS011;4012;48.896;9.192;2023-06-10T08:27:24;3.30;;;3.00;;
7933;SDS011;4012;48.896;9.192;2023-06-10T08:29:50;3.25;;;2.95;;
7933;SDS011;4012;48.896;9.192;2023-06-10T08:32:15;3.00;;;2.70;;
7933;SDS011;4012;48.896;9.192;2023-06-10T08:34:41;4.10;;;2.90;;
7933;SDS011;4012;48.896;9.192;2023-06-10T08:37:07;3.60;;;2.92;;
7933;SDS011;4012;48.896;9.192;2023-06-10T08:39:32;3.42;;;3.13;;
7933;SDS011;4012;48.896;9.192;2023-06-10T08:44:38;3.22;;;2.97;;
7933;SDS011;4012;48.896;9.192;2023-06-10T08:47:15;3.40;;;3.10;;
7933;SDS011;4012;48.896;9.192;2023-06-10T08:49:45;3.83;;;3.45;;
7933;SDS011;4012;48.896;9.192;2023-06-10T08:52:16;3.47;;;3.17;;
7933;SDS011;4012;48.896;9.192;2023-06-10T08:54:46;3.75;;;2.85;;
7933;SDS011;4012;48.896;9.192;2023-06-10T08:57:24;3.97;;;3.67;;
7933;SDS011;4012;48.896;9.192;2023-06-10T08:59:52;3.10;;;2.90;;
7933;SDS011;4012;48.896;9.192;2023-06-10T09:02:19;3.03;;;2.75;;
7933;SDS011;4012;48.896;9.192;2023-06-10T09:04:48;3.33;;;3.03;;
7933;SDS011;4012;48.896;9.192;2023-06-10T09:07:17;2.90;;;2.70;;
7933;SDS011;4012;48.896;9.192;2023-06-10T09:09:44;2.60;;;2.40;;
7933;SDS011;4012;48.896;9.192;2023-06-10T09:12:10;2.83;;;2.55;;
7933;SDS011;4012;48.896;9.192;2023-06-10T09:14:37;3.10;;;2.80;;
7933;SDS011;4012;48.896;9.192;2023-06-10T09:17:03;3.58;;;2.90;;
7933;SDS011;4012;48.896;9.192;2023-06-10T09:19:30;3.45;;;3.15;;
7933;SDS011;4012;48.896;9.192;2023-06-10T09:21:56;3.38;;;3.00;;
7933;SDS011;4012;48.896;9.192;2023-06-10T09:24:22;3.50;;;3.10;;
7933;SDS011;4012;48.896;9.192;2023-06-10T09:26:48;3.15;;;2.95;;
7933;SDS011;4012;48.896;9.192;2023-06-10T09:29:15;3.80;;;2.80;;
7933;SDS011;4012;48.896;9.192;2023-06-10T09:31:41;3.55;;;3.25;;
7933;SDS011;4012;48.896;9.192;2023-06-10T09:34:12;2.80;;;2.60;;
7933;SDS011;4012;48.896;9.192;2023-06-10T09:36:39;3.17;;;2.90;;
7933;SDS011;4012;48.896;9.192;2023-06-10T09:39:13;2.97;;;2.78;;
7933;SDS011;4012;48.896;9.192;2023-06-10T09:41:41;3.45;;;3.15;;
7933;SDS011;4012;48.896;9.192;2023-06-10T09:44:20;3.30;;;3.00;;
7933;SDS011;4012;48.896;9.192;2023-06-10T09:46:48;2.97;;;2.78;;
7933;SDS011;4012;48.896;9.192;2023-06-10T09:49:15;3.10;;;2.80;;
7933;SDS011;4012;48.896;9.192;2023-06-10T09:51:51;3.92;;;2.97;;
7933;SDS011;4012;48.896;9.192;2023-06-10T09:54:17;3.33;;;3.10;;
7933;SDS011;4012;48.896;9.192;2023-06-10T09:56:43;3.60;;;3.28;;
7933;SDS011;4012;48.896;9.192;2023-06-10T09:59:16;3.80;;;3.38;;
7933;SDS011;4012;48.896;9.192;2023-06-10T10:01:56;3.03;;;2.73;;
7933;SDS011;4012;48.896;9.192;2023-06-10T10:04:25;3.10;;;2.73;;
7933;SDS011;4012;48.896;9.192;2023-06-10T10:06:52;3.33;;;3.03;;
7933;SDS011;4012;48.896;9.192;2023-06-10T10:09:17;2.93;;;2.73;;
7933;SDS011;4012;48.896;9.192;2023-06-10T10:11:43;3.33;;;3.03;;
7933;SDS011;4012;48.896;9.192;2023-06-10T10:14:09;3.50;;;2.77;;
7933;SDS011;4012;48.896;9.192;2023-06-10T10:16:36;3.13;;;2.83;;
7933;SDS011;4012;48.896;9.192;2023-06-10T10:19:18;3.60;;;3.00;;
7933;SDS011;4012;48.896;9.192;2023-06-10T10:22:03;3.03;;;2.83;;
7933;SDS011;4012;48.896;9.192;2023-06-10T10:24:35;2.97;;;2.78;;
7933;SDS011;4012;48.896;9.192;2023-06-10T10:27:10;3.03;;;2.73;;
7933;SDS011;4012;48.896;9.192;2023-06-10T10:29:42;3.03;;;2.83;;
7933;SDS011;4012;48.896;9.192;2023-06-10T10:32:12;2.80;;;2.60;;
7933;SDS011;4012;48.896;9.192;2023-06-10T10:37:17;2.90;;;2.67;;
7933;SDS011;4012;48.896;9.192;2023-06-10T10:39:44;3.10;;;2.80;;
7933;SDS011;4012;48.896;9.192;2023-06-10T10:42:10;5.20;;;3.23;;
7933;SDS011;4012;48.896;9.192;2023-06-10T10:44:39;3.43;;;3.10;;
7933;SDS011;4012;48.896;9.192;2023-06-10T10:47:07;3.30;;;3.00;;
7933;SDS011;4012;48.896;9.192;2023-06-10T10:49:34;3.57;;;3.23;;
7933;SDS011;4012;48.896;9.192;2023-06-10T10:52:01;3.13;;;2.90;;
7933;SDS011;4012;48.896;9.192;2023-06-10T10:54:36;3.70;;;2.80;;
7933;SDS011;4012;48.896;9.192;2023-06-10T10:57:11;3.17;;;2.90;;
7933;SDS011;4012;48.896;9.192;2023-06-10T10:59:56;3.37;;;3.07;;
7933;SDS011;4012;48.896;9.192;2023-06-10T11:02:45;4.03;;;3.20;;
7933;SDS011;4012;48.896;9.192;2023-06-10T11:05:14;3.40;;;2.80;;
7933;SDS011;4012;48.896;9.192;2023-06-10T11:07:41;4.00;;;3.70;;
7933;SDS011;4012;48.896;9.192;2023-06-10T11:10:28;3.20;;;2.80;;
7933;SDS011;4012;48.896;9.192;2023-06-10T11:13:07;3.17;;;2.90;;
7933;SDS011;4012;48.896;9.192;2023-06-10T11:15:37;3.77;;;3.40;;
7933;SDS011;4012;48.896;9.192;2023-06-10T11:18:22;3.27;;;2.97;;
7933;SDS011;4012;48.896;9.192;2023-06-10T11:23:24;3.13;;;2.80;;
7933;SDS011;4012;48.896;9.192;2023-06-10T11:26:09;5.17;;;3.27;;
7933;SDS011;4012;48.896;9.192;2023-06-10T11:28:38;3.10;;;2.80;;
7933;SDS011;4012;48.896;9.192;2023-06-10T11:31:04;3.13;;;2.83;;
7933;SDS011;4012;48.896;9.192;2023-06-10T11:33:30;3.30;;;3.00;;
7933;SDS011;4012;48.896;9.192;2023-06-10T11:36:06;2.77;;;2.50;;
7933;SDS011;4012;48.896;9.192;2023-06-10T11:38:32;2.80;;;2.60;;
7933;SDS011;4012;48.896;9.192;2023-06-10T11:40:58;2.87;;;2.57;;
7933;SDS011;4012;48.896;9.192;2023-06-10T11:43:23;3.10;;;2.80;;
7933;SDS011;4012;48.896;9.192;2023-06-10T11:45:53;3.40;;;3.10;;
7933;SDS011;4012;48.896;9.192;2023-06-10T11:48:20;5.10;;;2.83;;
7933;SDS011;4012;48.896;9.192;2023-06-10T11:50:48;3.97;;;2.50;;
7933;SDS011;4012;48.896;9.192;2023-06-10T11:53:14;2.70;;;2.50;;
7933;SDS011;4012;48.896;9.192;2023-06-10T11:55:47;2.80;;;2.60;;
7933;SDS011;4012;48.896;9.192;2023-06-10T11:58:16;3.00;;;2.70;;
7933;SDS011;4012;48.896;9.192;2023-06-10T12:03:11;2.47;;;2.27;;
7933;SDS011;4012;48.896;9.192;2023-06-10T12:05:38;2.73;;;2.53;;
7933;SDS011;4012;48.896;9.192;2023-06-10T12:08:10;2.70;;;2.40;;
7933;SDS011;4012;48.896;9.192;2023-06-10T12:10:40;2.83;;;2.60;;
7933;SDS011;4012;48.896;9.192;2023-06-10T12:13:07;2.40;;;2.20;;
7933;SDS011;4012;48.896;9.192;2023-06-10T12:15:34;3.13;;;2.83;;
7933;SDS011;4012;48.896;9.192;2023-06-10T12:17:59;2.70;;;2.50;;
7933;SDS011;4012;48.896;9.192;2023-06-10T12:20:26;2.67;;;2.47;;
7933;SDS011;4012;48.896;9.192;2023-06-10T12:22:53;3.00;;;2.47;;
7933;SDS011;4012;48.896;9.192;2023-06-10T12:25:23;3.27;;;2.37;;
7933;SDS011;4012;48.896;9.192;2023-06-10T12:27:54;3.10;;;2.77;;
7933;SDS011;4012;48.896;9.192;2023-06-10T12:30:22;2.30;;;2.20;;
7933;SDS011;4012;48.896;9.192;2023-06-10T12:32:49;2.20;;;2.10;;
7933;SDS011;4012;48.896;9.192;2023-06-10T12:35:16;2.80;;;2.43;;
7933;SDS011;4012;48.896;9.192;2023-06-10T12:37:53;2.73;;;2.53;;
7933;SDS011;4012;48.896;9.192;2023-06-10T12:40:25;2.50;;;2.30;;
7933;SDS011;4012;48.896;9.192;2023-06-10T12:42:54;2.87;;;2.67;;
7933;SDS011;4012;48.896;9.192;2023-06-10T12:45:30;3.50;;;2.50;;
7933;SDS011;4012;48.896;9.192;2023-06-10T12:48:07;3.37;;;2.10;;
7933;SDS011;4012;48.896;9.192;2023-06-10T12:50:54;3.07;;;2.37;;
7933;SDS011;4012;48.896;9.192;2023-06-10T12:53:21;8.03;;;2.27;;
7933;SDS011;4012;48.896;9.192;2023-06-10T12:55:54;2.93;;;2.40;;
7933;SDS011;4012;48.896;9.192;2023-06-10T12:58:22;2.63;;;2.43;;
7933;SDS011;4012;48.896;9.192;2023-06-10T13:00:48;2.67;;;2.10;;
7933;SDS011;4012;48.896;9.192;2023-06-10T13:03:17;2.40;;;2.20;;
7933;SDS011;4012;48.896;9.192;2023-06-10T13:05:43;2.77;;;2.17;;
7933;SDS011;4012;48.896;9.192;2023-06-10T13:08:08;2.77;;;2.50;;
7933;SDS011;4012;48.896;9.192;2023-06-10T13:10:37;2.50;;;2.30;;
7933;SDS011;4012;48.896;9.192;2023-06-10T13:13:03;2.60;;;2.40;;
7933;SDS011;4012;48.896;9.192;2023-06-10T13:15:35;3.23;;;2.40;;
7933;SDS011;4012;48.896;9.192;2023-06-10T13:18:01;2.20;;;2.00;;
7933;SDS011;4012;48.896;9.192;2023-06-10T13:20:28;2.10;;;1.90;;
7933;SDS011;4012;48.896;9.192;2023-06-10T13:22:54;2.73;;;2.53;;
7933;SDS011;4012;48.896;9.192;2023-06-10T13:25:20;2.30;;;2.10;;
7933;SDS011;4012;48.896;9.192;2023-06-10T13:27:46;2.43;;;2.17;;
7933;SDS011;4012;48.896;9.192;2023-06-10T13:30:11;2.50;;;2.30;;
7933;SDS011;4012;48.896;9.192;2023-06-10T13:32:37;2.40;;;2.20;;
7933;SDS011;4012;48.896;9.192;2023-06-10T13:35:03;2.30;;;2.10;;
7933;SDS011;4012;48.896;9.192;2023-06-10T13:37:29;2.30;;;2.10;;
7933;SDS011;4012;48.896;9.192;2023-06-10T13:39:55;2.10;;;2.00;;
7933;SDS011;4012;48.896;9.192;2023-06-10T13:42:21;2.40;;;2.20;;
7933;SDS011;4012;48.896;9.192;2023-06-10T13:44:47;3.20;;;2.80;;
7933;SDS011;4012;48.896;9.192;2023-06-10T13:47:13;2.77;;;2.57;;
7933;SDS011;4012;48.896;9.192;2023-06-10T13:49:39;2.63;;;2.43;;
7933;SDS011;4012;48.896;9.192;2023-06-10T13:52:05;2.53;;;2.33;;
7933;SDS011;4012;48.896;9.192;2023-06-10T13:54:32;2.53;;;2.20;;
7933;SDS011;4012;48.896;9.192;2023-06-10T13:56:58;2.60;;;2.40;;
7933;SDS011;4012;48.896;9.192;2023-06-10T13:59:25;2.33;;;2.13;;
7933;SDS011;4012;48.896;9.192;2023-06-10T14:01:51;2.73;;;2.30;;
7933;SDS011;4012;48.896;9.192;2023-06-10T14:04:16;2.33;;;2.13;;
7933;SDS011;4012;48.896;9.192;2023-06-10T14:06:42;2.87;;;2.33;;
7933;SDS011;4012;48.896;9.192;2023-06-10T14:09:08;2.63;;;2.43;;
7933;SDS011;4012;48.896;9.192;2023-06-10T14:11:34;2.40;;;2.20;;
7933;SDS011;4012;48.896;9.192;2023-06-10T14:14:00;2.53;;;2.33;;
7933;SDS011;4012;48.896;9.192;2023-06-10T14:16:26;2.93;;;2.73;;
7933;SDS011;4012;48.896;9.192;2023-06-10T14:18:52;3.37;;;2.20;;
7933;SDS011;4012;48.896;9.192;2023-06-10T14:21:17;2.63;;;2.43;;
7933;SDS011;4012;48.896;9.192;2023-06-10T14:23:43;2.57;;;2.37;;
7933;SDS011;4012;48.896;9.192;2023-06-10T14:26:09;2.57;;;2.37;;
7933;SDS011;4012;48.896;9.192;2023-06-10T14:28:35;2.40;;;2.17;;
7933;SDS011;4012;48.896;9.192;2023-06-10T14:31:00;2.30;;;2.10;;
7933;SDS011;4012;48.896;9.192;2023-06-10T14:33:27;2.67;;;2.47;;
7933;SDS011;4012;48.896;9.192;2023-06-10T14:35:53;2.63;;;2.43;;
7933;SDS011;4012;48.896;9.192;2023-06-10T14:38:19;2.60;;;2.40;;
7933;SDS011;4012;48.896;9.192;2023-06-10T14:40:45;2.07;;;1.97;;
7933;SDS011;4012;48.896;9.192;2023-06-10T14:43:10;3.70;;;2.70;;
7933;SDS011;4012;48.896;9.192;2023-06-10T14:45:36;2.97;;;2.77;;
7933;SDS011;4012;48.896;9.192;2023-06-10T14:48:03;3.00;;;2.47;;
7933;SDS011;4012;48.896;9.192;2023-06-10T14:50:30;3.47;;;2.40;;
7933;SDS011;4012;48.896;9.192;2023-06-10T14:52:55;2.77;;;2.57;;
7933;SDS011;4012;48.896;9.192;2023-06-10T14:55:21;2.87;;;2.40;;
7933;SDS011;4012;48.896;9.192;2023-06-10T14:57:47;2.57;;;2.10;;
7933;SDS011;4012;48.896;9.192;2023-06-10T15:00:14;2.50;;;2.30;;
7933;SDS011;4012;48.896;9.192;2023-06-10T15:02:42;2.10;;;2.00;;
7933;SDS011;4012;48.896;9.192;2023-06-10T15:05:07;2.53;;;2.33;;
7933;SDS011;4012;48.896;9.192;2023-06-10T15:07:33;2.30;;;2.10;;
7933;SDS011;4012;48.896;9.192;2023-06-10T15:09:59;2.60;;;2.27;;
7933;SDS011;4012;48.896;9.192;2023-06-10T15:12:24;2.80;;;2.50;;
7933;SDS011;4012;48.896;9.192;2023-06-10T15:14:53;3.13;;;2.70;;
7933;SDS011;4012;48.896;9.192;2023-06-10T15:17:18;2.60;;;2.40;;
7933;SDS011;4012;48.896;9.192;2023-06-10T15:19:46;2.67;;;2.47;;
7933;SDS011;4012;48.896;9.192;2023-06-10T15:22:12;3.00;;;2.50;;
7933;SDS011;4012;48.896;9.192;2023-06-10T15:24:38;2.90;;;2.40;;
7933;SDS011;4012;48.896;9.192;2023-06-10T15:27:04;2.30;;;2.10;;
7933;SDS011;4012;48.896;9.192;2023-06-10T15:29:30;3.40;;;2.20;;
7933;SDS011;4012;48.896;9.192;2023-06-10T15:31:56;2.57;;;2.37;;